Time;durP1;ratioP1;P1;durP2;ratioP2;P2;SDS_P1;SDS_P2;PMS_P1;PMS_P2;Temp;Humidity;BMP_temperature;BMP_pressure;BME280_temperature;BME280_humidity;BME280_pressure;Samples;Min_cycle;Max_cycle;Signal;HPM_P1;HPM_P2
2022/03/09 00:02:22;;;;;;;16.73;8.52;;;6.20;81.40;;;;;;5001770;28;20022;-84
2022/03/09 00:04:48;;;;;;;12.15;7.75;;;6.20;81.30;;;;;;5002439;28;20411;-84
2022/03/09 00:07:14;;;;;;;14.32;8.40;;;6.20;81.30;;;;;;5002391;28;20064;-84
2022/03/09 00:09:39;;;;;;;14.45;8.70;;;6.20;81.30;;;;;;5002268;28;20026;-84
2022/03/09 00:12:06;;;;;;;13.60;7.80;;;6.20;81.40;;;;;;5002874;28;20426;-84
2022/03/09 00:14:32;;;;;;;13.13;7.53;;;6.20;81.30;;;;;;5002195;28;20030;-84
2022/03/09 00:16:57;;;;;;;14.55;8.68;;;6.20;81.20;;;;;;5002184;28;20026;-84
2022/03/09 00:19:24;;;;;;;14.02;8.38;;;6.20;81.30;;;;;;5008542;28;20128;-84
2022/03/09 00:21:50;;;;;;;14.07;8.02;;;6.20;81.30;;;;;;4982746;28;20485;-84
2022/03/09 00:24:17;;;;;;;13.35;8.13;;;6.10;81.10;;;;;;4982717;28;20018;-84
2022/03/09 00:26:43;;;;;;;11.43;7.70;;;6.20;81.30;;;;;;4982650;28;20109;-84
2022/03/09 00:29:09;;;;;;;12.73;7.95;;;6.10;81.40;;;;;;4982594;28;20113;-84
2022/03/09 00:31:35;;;;;;;12.45;7.68;;;6.10;81.50;;;;;;4982607;28;20370;-84
2022/03/09 00:34:01;;;;;;;15.90;7.78;;;6.10;81.40;;;;;;4982446;28;20524;-84
2022/03/09 00:36:26;;;;;;;14.43;8.70;;;6.10;81.40;;;;;;4982704;28;20524;-84
2022/03/09 00:38:52;;;;;;;14.75;8.52;;;6.10;81.40;;;;;;4982873;28;20026;-84
2022/03/09 00:41:18;;;;;;;12.75;7.82;;;6.10;81.50;;;;;;4982557;28;20085;-84
2022/03/09 00:43:43;;;;;;;12.90;6.88;;;6.10;81.40;;;;;;4982510;28;20037;-84
2022/03/09 00:46:09;;;;;;;12.48;7.38;;;6.10;81.30;;;;;;4982538;28;20489;-85
2022/03/09 00:48:35;;;;;;;13.73;7.90;;;6.00;81.30;;;;;;4982424;28;20034;-84
2022/03/09 00:51:01;;;;;;;10.73;7.18;;;6.00;81.60;;;;;;4982497;28;20033;-85
2022/03/09 00:53:27;;;;;;;15.18;7.63;;;6.00;81.60;;;;;;4982947;28;20125;-84
2022/03/09 00:55:52;;;;;;;11.65;6.75;;;6.00;81.30;;;;;;4982378;28;20490;-84
2022/03/09 00:58:18;;;;;;;12.82;8.10;;;6.00;81.30;;;;;;4982384;28;20022;-84
2022/03/09 01:00:44;;;;;;;16.15;7.70;;;6.00;81.30;;;;;;4982624;28;20058;-85
2022/03/09 01:03:09;;;;;;;11.68;6.97;;;6.00;81.40;;;;;;4982403;28;20023;-84
2022/03/09 01:05:35;;;;;;;11.70;7.10;;;6.00;81.50;;;;;;4982261;28;20018;-84
2022/03/09 01:08:01;;;;;;;12.27;7.10;;;6.00;81.50;;;;;;4982300;28;20030;-84
2022/03/09 01:10:27;;;;;;;12.27;6.93;;;6.00;81.50;;;;;;4982186;28;20030;-85
2022/03/09 01:12:52;;;;;;;12.85;7.60;;;6.00;81.50;;;;;;4997460;28;20366;-85
2022/03/09 01:15:18;;;;;;;12.18;6.93;;;5.90;81.40;;;;;;4979091;28;20026;-84
2022/03/09 01:17:45;;;;;;;11.60;7.10;;;5.90;81.40;;;;;;4979436;28;20397;-85
2022/03/09 01:20:11;;;;;;;12.45;7.00;;;5.90;81.40;;;;;;4978794;28;20038;-85
2022/03/09 01:22:37;;;;;;;13.35;7.10;;;5.90;81.50;;;;;;4979141;28;20030;-85
2022/03/09 01:25:03;;;;;;;11.30;6.47;;;5.90;81.50;;;;;;4978926;28;20022;-84
2022/03/09 01:27:29;;;;;;;12.68;7.28;;;5.90;81.50;;;;;;4978994;28;20037;-85
2022/03/09 01:29:55;;;;;;;9.90;6.95;;;5.90;81.50;;;;;;4996443;28;20022;-85
2022/03/09 01:32:21;;;;;;;13.02;7.13;;;5.90;81.50;;;;;;4978871;28;20397;-84
2022/03/09 01:34:48;;;;;;;11.32;6.82;;;5.90;81.70;;;;;;4979703;28;20059;-85
2022/03/09 01:37:14;;;;;;;13.32;7.07;;;5.90;81.60;;;;;;4978540;28;20041;-84
2022/03/09 01:39:40;;;;;;;11.57;6.57;;;5.80;81.60;;;;;;4978691;28;20394;-85
2022/03/09 01:42:06;;;;;;;11.90;7.03;;;5.80;81.60;;;;;;4978703;28;20086;-85
2022/03/09 01:44:32;;;;;;;13.65;7.10;;;5.80;81.50;;;;;;4978713;28;20434;-85
2022/03/09 01:46:58;;;;;;;12.20;6.97;;;5.80;81.50;;;;;;4978697;28;20035;-85
2022/03/09 01:49:24;;;;;;;11.73;6.55;;;5.80;81.60;;;;;;4978663;28;20031;-85
2022/03/09 01:51:52;;;;;;;11.13;6.80;;;5.80;81.60;;;;;;4996049;28;20031;-85
2022/03/09 01:54:18;;;;;;;14.48;7.50;;;5.80;81.60;;;;;;4996125;28;20022;-85
2022/03/09 01:56:45;;;;;;;10.32;6.97;;;5.80;81.70;;;;;;4978374;28;20030;-85
2022/03/09 01:59:14;;;;;;;13.00;7.03;;;5.80;81.70;;;;;;4978331;28;20027;-85
2022/03/09 02:01:41;;;;;;;12.05;6.82;;;5.80;81.70;;;;;;4995880;28;20146;-85
2022/03/09 02:04:07;;;;;;;12.63;6.53;;;5.70;81.60;;;;;;4978313;28;20496;-85
2022/03/09 02:06:34;;;;;;;11.38;6.75;;;5.70;81.60;;;;;;4995727;28;20054;-85
2022/03/09 02:11:46;;;;;;;11.43;6.95;;;5.70;81.70;;;;;;4996235;28;20549;-85
2022/03/09 02:14:37;;;;;;;13.88;7.28;;;5.70;81.70;;;;;;4978191;28;20539;-85
2022/03/09 02:17:07;;;;;;;12.43;7.43;;;5.70;81.80;;;;;;4995864;28;20528;-85
2022/03/09 02:19:33;;;;;;;10.13;7.05;;;5.70;81.70;;;;;;4977825;28;20453;-85
2022/03/09 02:22:05;;;;;;;12.20;6.78;;;5.70;81.70;;;;;;4978524;28;20026;-85
2022/03/09 02:24:32;;;;;;;11.80;6.88;;;5.70;81.80;;;;;;4976894;28;20046;-85
2022/03/09 02:26:58;;;;;;;13.10;7.47;;;5.70;81.90;;;;;;4977915;28;20030;-84
2022/03/09 02:29:23;;;;;;;15.80;7.32;;;5.70;81.90;;;;;;4977857;28;20449;-85
2022/03/09 02:31:49;;;;;;;13.60;7.13;;;5.70;81.90;;;;;;4977826;28;20029;-85
2022/03/09 02:34:15;;;;;;;13.70;6.70;;;5.70;82.00;;;;;;4977781;28;20023;-85
2022/03/09 02:36:40;;;;;;;13.18;7.82;;;5.60;82.10;;;;;;4995318;28;20143;-85
2022/03/09 02:39:06;;;;;;;11.90;7.28;;;5.60;81.90;;;;;;4977623;28;20367;-85
2022/03/09 02:41:33;;;;;;;13.68;7.45;;;5.60;81.90;;;;;;4977772;28;20113;-85
2022/03/09 02:44:02;;;;;;;12.15;6.75;;;5.60;82.00;;;;;;4977683;28;20540;-85
2022/03/09 02:46:28;;;;;;;12.73;7.50;;;5.60;81.90;;;;;;4995026;28;20049;-85
2022/03/09 02:48:54;;;;;;;9.88;6.47;;;5.60;81.90;;;;;;4977494;28;20026;-85
2022/03/09 02:51:21;;;;;;;12.95;6.68;;;5.60;81.90;;;;;;4977721;28;20023;-85
2022/03/09 02:53:48;;;;;;;15.00;8.02;;;5.60;81.90;;;;;;4995050;28;20381;-85
2022/03/09 02:56:15;;;;;;;23.60;10.40;;;5.60;81.90;;;;;;4977360;28;20027;-85
2022/03/09 02:58:42;;;;;;;21.00;8.15;;;5.50;81.90;;;;;;4977215;28;20026;-85
2022/03/09 03:01:07;;;;;;;23.55;9.65;;;5.60;81.90;;;;;;4977242;28;20023;-85
2022/03/09 03:03:33;;;;;;;19.98;8.85;;;5.50;82.00;;;;;;4977153;28;20022;-85
2022/03/09 03:05:59;;;;;;;21.42;9.27;;;5.50;81.90;;;;;;4994916;28;20022;-85
2022/03/09 03:08:25;;;;;;;18.90;8.88;;;5.50;81.90;;;;;;4977458;28;20026;-86
2022/03/09 03:10:50;;;;;;;17.65;7.88;;;5.50;81.90;;;;;;4977084;28;20029;-85
2022/03/09 03:13:16;;;;;;;17.90;8.48;;;5.50;82.00;;;;;;4977130;28;20019;-85
2022/03/09 03:15:42;;;;;;;17.52;8.32;;;5.50;82.00;;;;;;4976972;28;20045;-86
2022/03/09 03:18:07;;;;;;;16.02;7.43;;;5.50;82.00;;;;;;4976752;28;20026;-86
2022/03/09 03:20:34;;;;;;;22.42;8.13;;;5.50;82.10;;;;;;4976951;28;20088;-85
2022/03/09 03:22:59;;;;;;;18.33;7.80;;;5.50;82.10;;;;;;4976915;28;20037;-85
2022/03/09 03:25:25;;;;;;;12.77;6.93;;;5.40;82.00;;;;;;4994247;28;20105;-85
2022/03/09 03:27:51;;;;;;;17.00;7.20;;;5.40;82.10;;;;;;4976897;28;20030;-85
2022/03/09 03:30:16;;;;;;;17.02;7.20;;;5.40;82.10;;;;;;4977106;28;20113;-85
2022/03/09 03:32:42;;;;;;;15.80;7.57;;;5.40;82.30;;;;;;4976766;28;20030;-86
2022/03/09 03:35:10;;;;;;;12.85;7.82;;;5.40;82.20;;;;;;4977042;28;20031;-85
2022/03/09 03:37:36;;;;;;;11.95;6.57;;;5.40;82.30;;;;;;4977575;28;20061;-86
2022/03/09 03:40:02;;;;;;;14.05;7.30;;;5.40;82.50;;;;;;4976670;28;20076;-86
2022/03/09 03:42:28;;;;;;;12.90;7.18;;;5.40;82.30;;;;;;4976785;28;20026;-86
2022/03/09 03:44:54;;;;;;;11.48;6.95;;;5.40;82.50;;;;;;4976632;28;20370;-86
2022/03/09 03:47:19;;;;;;;12.20;6.63;;;5.40;82.40;;;;;;4976555;28;20556;-86
2022/03/09 03:49:46;;;;;;;12.27;7.40;;;5.40;82.50;;;;;;4976678;28;20027;-86
2022/03/09 03:52:13;;;;;;;13.88;7.40;;;5.40;82.50;;;;;;4976574;28;20030;-86
2022/03/09 03:54:39;;;;;;;17.13;6.80;;;5.30;82.40;;;;;;4976545;28;20433;-85
2022/03/09 03:57:04;;;;;;;12.35;6.63;;;5.30;82.40;;;;;;4976485;28;20057;-86
2022/03/09 03:59:30;;;;;;;14.50;7.43;;;5.30;82.30;;;;;;4993885;28;20061;-86
2022/03/09 04:01:56;;;;;;;11.60;6.53;;;5.40;82.40;;;;;;4976502;28;20029;-86
2022/03/09 04:04:22;;;;;;;10.77;6.45;;;5.30;82.50;;;;;;4976513;28;20030;-86
2022/03/09 04:06:47;;;;;;;11.48;6.68;;;5.30;82.50;;;;;;4976315;28;20473;-86
2022/03/09 04:09:13;;;;;;;11.48;6.90;;;5.30;82.60;;;;;;4976325;28;20037;-85
2022/03/09 04:11:39;;;;;;;11.75;6.85;;;5.30;82.50;;;;;;4976968;28;20057;-86
2022/03/09 04:14:04;;;;;;;9.93;6.95;;;5.30;82.40;;;;;;4976337;28;20031;-86
2022/03/09 04:16:30;;;;;;;11.15;6.53;;;5.20;82.50;;;;;;4976397;28;20034;-86
2022/03/09 04:18:57;;;;;;;9.48;6.40;;;5.20;82.50;;;;;;4993516;28;20046;-86
2022/03/09 04:21:22;;;;;;;14.18;7.00;;;5.20;82.60;;;;;;4976253;28;20363;-86
2022/03/09 04:23:48;;;;;;;9.43;6.28;;;5.20;82.70;;;;;;4976046;28;20033;-85
2022/03/09 04:26:14;;;;;;;12.93;6.30;;;5.20;82.80;;;;;;4976207;28;20084;-86
2022/03/09 04:28:39;;;;;;;12.10;6.68;;;5.20;82.70;;;;;;4976143;28;20026;-86
2022/03/09 04:31:05;;;;;;;10.10;6.47;;;5.20;82.70;;;;;;4976148;28;20027;-86
2022/03/09 04:33:31;;;;;;;10.75;6.60;;;5.20;82.70;;;;;;4993664;28;20035;-86
2022/03/09 04:35:57;;;;;;;12.50;7.15;;;5.20;82.80;;;;;;4976104;28;20034;-86
2022/03/09 04:38:22;;;;;;;10.88;6.75;;;5.10;82.80;;;;;;4976116;28;20057;-86
2022/03/09 04:40:48;;;;;;;9.80;6.38;;;5.20;82.80;;;;;;4975909;28;20022;-86
2022/03/09 04:43:14;;;;;;;11.95;6.93;;;5.20;82.90;;;;;;4976150;28;20105;-86
2022/03/09 04:45:39;;;;;;;11.00;6.78;;;5.10;82.90;;;;;;4976178;28;20022;-86
2022/03/09 04:48:05;;;;;;;13.20;6.55;;;5.10;82.80;;;;;;4977280;28;20019;-86
2022/03/09 04:50:31;;;;;;;10.45;6.30;;;5.10;82.80;;;;;;4979786;28;20031;-86
2022/03/09 04:52:56;;;;;;;9.50;6.57;;;5.10;82.80;;;;;;4997106;28;20105;-85
2022/03/09 04:55:22;;;;;;;14.98;7.28;;;5.10;82.80;;;;;;4980061;28;20092;-86
2022/03/09 04:57:48;;;;;;;12.30;6.38;;;5.10;82.90;;;;;;4979651;28;20121;-86
2022/03/09 05:00:14;;;;;;;10.05;6.38;;;5.10;83.00;;;;;;4979492;28;20027;-86
2022/03/09 05:02:40;;;;;;;11.13;6.93;;;5.10;82.90;;;;;;4997030;28;20022;-86
2022/03/09 05:05:07;;;;;;;10.38;6.85;;;5.00;82.90;;;;;;4979747;28;20473;-86
2022/03/09 05:07:33;;;;;;;11.52;7.00;;;5.00;82.80;;;;;;4979467;28;20046;-86
2022/03/09 05:09:59;;;;;;;11.93;6.90;;;5.00;82.80;;;;;;4979453;28;20146;-86
2022/03/09 05:12:25;;;;;;;14.88;7.15;;;5.00;82.80;;;;;;4979700;28;20491;-86
2022/03/09 05:14:51;;;;;;;12.35;7.38;;;5.00;82.90;;;;;;4979429;28;20102;-86
2022/03/09 05:17:16;;;;;;;13.10;7.03;;;5.00;83.00;;;;;;4979916;28;20081;-86
2022/03/09 05:19:42;;;;;;;12.50;7.32;;;5.00;83.00;;;;;;4979148;28;20054;-86
2022/03/09 05:22:08;;;;;;;12.35;7.68;;;5.00;83.00;;;;;;4979357;28;20018;-86
2022/03/09 05:24:33;;;;;;;14.68;7.72;;;5.00;83.00;;;;;;4979146;28;20115;-86
2022/03/09 05:26:59;;;;;;;14.60;8.43;;;5.00;83.10;;;;;;4978924;28;20041;-85
2022/03/09 05:29:25;;;;;;;13.13;8.02;;;5.00;83.00;;;;;;4979075;28;20531;-86
2022/03/09 05:31:50;;;;;;;11.90;7.80;;;5.00;83.10;;;;;;4996394;28;20033;-86
2022/03/09 05:34:16;;;;;;;13.10;7.75;;;4.90;83.10;;;;;;4978939;28;20030;-86
2022/03/09 05:36:42;;;;;;;12.23;7.40;;;4.90;83.10;;;;;;4978942;28;20030;-86
2022/03/09 05:39:07;;;;;;;12.23;7.63;;;4.90;83.00;;;;;;4978767;28;20026;-86
2022/03/09 05:41:34;;;;;;;11.30;7.75;;;4.90;83.10;;;;;;4978823;28;20073;-85
2022/03/09 05:44:00;;;;;;;12.30;8.15;;;4.90;83.10;;;;;;4996284;28;20026;-86
2022/03/09 05:46:26;;;;;;;12.65;7.53;;;4.90;83.10;;;;;;4978709;28;20034;-86
2022/03/09 05:48:52;;;;;;;14.25;8.10;;;4.90;83.20;;;;;;4996152;28;20026;-85
2022/03/09 05:51:18;;;;;;;15.60;7.75;;;4.90;83.20;;;;;;4978998;28;20029;-86
2022/03/09 05:53:43;;;;;;;11.70;8.27;;;4.90;83.20;;;;;;4978620;28;20486;-86
2022/03/09 05:56:09;;;;;;;12.35;8.25;;;4.90;83.30;;;;;;4978463;28;20026;-85
2022/03/09 05:58:35;;;;;;;14.23;8.80;;;4.90;83.30;;;;;;4978190;28;20502;-86
2022/03/09 06:01:00;;;;;;;14.85;8.50;;;4.80;83.20;;;;;;4996094;28;20023;-86
2022/03/09 06:03:26;;;;;;;15.15;9.02;;;4.80;83.20;;;;;;4995783;28;20027;-86
2022/03/09 06:05:52;;;;;;;15.63;8.77;;;4.80;83.20;;;;;;4978744;28;20022;-86
2022/03/09 06:08:17;;;;;;;12.93;8.38;;;4.80;83.20;;;;;;4978389;28;20030;-86
2022/03/09 06:10:43;;;;;;;16.08;9.00;;;4.80;83.20;;;;;;4979158;28;20029;-85
2022/03/09 06:13:09;;;;;;;19.20;8.93;;;4.80;83.20;;;;;;4978247;28;20486;-85
2022/03/09 06:15:35;;;;;;;15.63;9.15;;;4.80;83.20;;;;;;4978237;28;20125;-85
2022/03/09 06:18:00;;;;;;;14.98;9.38;;;4.80;83.20;;;;;;4978081;28;20031;-85
2022/03/09 06:20:26;;;;;;;17.60;9.23;;;4.80;83.20;;;;;;4978241;28;20046;-85
2022/03/09 06:22:52;;;;;;;20.92;9.75;;;4.90;83.30;;;;;;4978254;28;20057;-85
2022/03/09 06:25:18;;;;;;;14.27;8.85;;;4.90;83.30;;;;;;4978476;28;20027;-85
2022/03/09 06:27:50;;;;;;;18.60;9.30;;;4.90;83.10;;;;;;4978454;28;20031;-85
2022/03/09 06:30:16;;;;;;;13.55;8.32;;;4.90;82.90;;;;;;4978563;28;20061;-85
2022/03/09 06:32:43;;;;;;;14.50;8.45;;;5.00;82.90;;;;;;4978287;28;20030;-85
2022/03/09 06:35:09;;;;;;;14.73;9.07;;;5.00;82.80;;;;;;4978212;28;20034;-85
2022/03/09 06:37:35;;;;;;;16.10;8.93;;;5.10;82.80;;;;;;4977722;28;20032;-85
2022/03/09 06:40:02;;;;;;;13.32;8.95;;;5.10;82.50;;;;;;4995170;28;20109;-85
2022/03/09 06:42:29;;;;;;;14.27;9.15;;;5.20;82.40;;;;;;4978236;28;20484;-85
2022/03/09 06:44:55;;;;;;;15.48;9.43;;;5.30;82.30;;;;;;4977763;28;20548;-85
2022/03/09 06:47:21;;;;;;;12.20;8.63;;;5.40;82.20;;;;;;4995057;28;20026;-84
2022/03/09 06:49:46;;;;;;;15.95;8.15;;;5.40;82.00;;;;;;4977585;28;20022;-84
2022/03/09 06:52:13;;;;;;;14.82;8.93;;;5.50;81.70;;;;;;4994961;28;20432;-85
2022/03/09 06:54:39;;;;;;;11.73;8.27;;;5.60;81.50;;;;;;4977437;28;20026;-84
2022/03/09 06:57:04;;;;;;;16.95;9.50;;;5.70;81.30;;;;;;4977335;28;20045;-84
2022/03/09 06:59:30;;;;;;;15.13;9.00;;;5.80;80.90;;;;;;4977293;28;20037;-84
2022/03/09 07:01:56;;;;;;;13.27;9.30;;;5.90;80.60;;;;;;4977323;28;20026;-84
2022/03/09 07:04:21;;;;;;;14.45;8.73;;;6.00;80.50;;;;;;4977215;28;20061;-84
2022/03/09 07:06:47;;;;;;;14.98;8.77;;;6.00;80.20;;;;;;4977338;28;20026;-83
2022/03/09 07:09:14;;;;;;;15.98;8.98;;;6.10;80.10;;;;;;4977238;28;20022;-84
2022/03/09 07:11:41;;;;;;;17.85;9.88;;;6.20;80.00;;;;;;4976510;28;20065;-83
2022/03/09 07:14:07;;;;;;;14.77;8.77;;;6.30;79.90;;;;;;4994636;28;20045;-83
2022/03/09 07:16:33;;;;;;;14.73;8.45;;;6.30;79.80;;;;;;4977364;28;20026;-84
2022/03/09 07:18:58;;;;;;;12.20;8.07;;;6.40;79.70;;;;;;4976757;28;20081;-83
2022/03/09 07:21:24;;;;;;;16.27;8.95;;;6.40;79.70;;;;;;4977017;28;20065;-83
2022/03/09 07:23:50;;;;;;;14.70;8.98;;;6.50;79.60;;;;;;4977217;28;20034;-83
2022/03/09 07:26:15;;;;;;;19.95;9.30;;;6.50;79.40;;;;;;4994691;28;20545;-83
2022/03/09 07:28:41;;;;;;;15.63;9.25;;;6.50;79.40;;;;;;4977211;28;20117;-83
2022/03/09 07:31:07;;;;;;;14.82;9.70;;;6.50;79.60;;;;;;4976893;28;20053;-83
2022/03/09 07:33:33;;;;;;;11.50;8.48;;;6.50;79.60;;;;;;4976865;28;20057;-83
2022/03/09 07:36:00;;;;;;;14.10;8.73;;;6.50;79.70;;;;;;4976816;28;20501;-82
2022/03/09 07:38:26;;;;;;;15.02;9.38;;;6.50;79.80;;;;;;4994064;28;20030;-83
2022/03/09 07:40:52;;;;;;;16.17;8.95;;;6.50;79.70;;;;;;4976759;28;20069;-83
2022/03/09 07:43:18;;;;;;;15.70;9.10;;;6.60;79.80;;;;;;4976650;28;20022;-83
2022/03/09 07:45:44;;;;;;;15.07;9.02;;;6.60;79.60;;;;;;4976617;28;20169;-83
2022/03/09 07:48:10;;;;;;;17.92;8.98;;;6.70;79.60;;;;;;4976606;28;20030;-83
2022/03/09 07:50:36;;;;;;;16.33;9.18;;;6.70;79.50;;;;;;4976734;28;20147;-83
2022/03/09 07:53:03;;;;;;;14.75;9.43;;;6.80;79.40;;;;;;4976490;28;20516;-82
2022/03/09 07:55:29;;;;;;;12.80;8.93;;;6.90;79.40;;;;;;4976408;28;20030;-83
2022/03/09 07:57:55;;;;;;;14.90;9.20;;;6.90;79.30;;;;;;4993854;28;20514;-82
2022/03/09 08:00:20;;;;;;;14.98;9.57;;;6.90;79.30;;;;;;4976214;28;20026;-83
2022/03/09 08:02:46;;;;;;;15.27;9.55;;;7.00;79.30;;;;;;4976426;28;20022;-83
2022/03/09 08:05:12;;;;;;;15.65;9.30;;;7.00;79.20;;;;;;4976406;28;20022;-82
2022/03/09 08:07:38;;;;;;;15.07;9.10;;;7.00;79.20;;;;;;4976428;28;20019;-82
2022/03/09 08:10:04;;;;;;;17.25;9.27;;;7.10;79.20;;;;;;4976367;28;20023;-82
2022/03/09 08:12:30;;;;;;;14.00;9.18;;;7.10;79.30;;;;;;4976388;28;20034;-82
2022/03/09 08:14:59;;;;;;;17.17;9.63;;;7.20;79.30;;;;;;4976408;28;20026;-82
2022/03/09 08:17:24;;;;;;;16.58;8.88;;;7.20;79.20;;;;;;4976245;28;20026;-82
2022/03/09 08:19:50;;;;;;;14.30;9.25;;;7.20;79.20;;;;;;4976084;28;20402;-82
2022/03/09 08:22:16;;;;;;;15.98;9.35;;;7.20;79.20;;;;;;4978491;28;20019;-82
2022/03/09 08:24:41;;;;;;;14.05;8.93;;;7.30;79.20;;;;;;4980293;28;20385;-82
2022/03/09 08:27:07;;;;;;;13.13;8.85;;;7.30;79.10;;;;;;4980195;28;20045;-82
2022/03/09 08:29:33;;;;;;;15.32;8.55;;;7.40;79.10;;;;;;4980156;28;20393;-82
2022/03/09 08:31:58;;;;;;;17.95;8.30;;;7.40;79.10;;;;;;4980115;28;20109;-81
2022/03/09 08:34:24;;;;;;;13.57;8.43;;;7.40;79.00;;;;;;4980039;28;20124;-82
2022/03/09 08:36:50;;;;;;;19.48;9.25;;;7.40;79.00;;;;;;4980064;28;20038;-82
2022/03/09 08:39:15;;;;;;;14.77;9.38;;;7.50;79.00;;;;;;4997331;28;20053;-82
2022/03/09 08:41:44;;;;;;;15.25;9.13;;;7.50;78.90;;;;;;4979845;28;20029;-82
2022/03/09 08:44:10;;;;;;;12.32;7.53;;;7.50;78.90;;;;;;4997342;28;20045;-81
2022/03/09 08:46:35;;;;;;;13.00;8.65;;;7.50;78.60;;;;;;4979770;28;20062;-81
2022/03/09 08:49:01;;;;;;;14.00;8.40;;;7.60;78.80;;;;;;4979840;28;20030;-81
2022/03/09 08:51:27;;;;;;;13.55;8.45;;;7.60;78.80;;;;;;4979687;28;20030;-81
2022/03/09 08:53:53;;;;;;;14.57;8.52;;;7.60;78.80;;;;;;4979641;28;20022;-81
2022/03/09 08:56:20;;;;;;;12.60;8.35;;;7.50;78.30;;;;;;4979632;28;20030;-81
2022/03/09 08:58:46;;;;;;;11.88;7.90;;;7.50;78.20;;;;;;4979519;28;20022;-81
2022/03/09 09:01:12;;;;;;;12.13;7.93;;;7.40;78.30;;;;;;4979500;28;20037;-81
2022/03/09 09:03:37;;;;;;;11.60;8.02;;;7.50;78.70;;;;;;4979555;28;20029;-82
2022/03/09 09:06:03;;;;;;;12.18;7.88;;;7.60;78.60;;;;;;4979412;28;20022;-82
2022/03/09 09:08:29;;;;;;;12.88;8.10;;;7.60;78.50;;;;;;4979415;28;20018;-82
2022/03/09 09:10:55;;;;;;;15.40;8.23;;;7.60;78.20;;;;;;4979290;28;20030;-81
2022/03/09 09:13:20;;;;;;;13.60;8.23;;;7.60;78.50;;;;;;4979248;28;20018;-83
2022/03/09 09:15:47;;;;;;;13.45;7.75;;;7.70;78.60;;;;;;4996689;28;20473;-82
2022/03/09 09:18:13;;;;;;;14.45;8.70;;;7.70;78.50;;;;;;4978845;28;20037;-82
2022/03/09 09:20:39;;;;;;;13.02;8.35;;;7.80;78.40;;;;;;4979085;28;20413;-82
2022/03/09 09:23:05;;;;;;;11.07;7.53;;;7.80;78.50;;;;;;4979395;28;20121;-82
2022/03/09 09:25:31;;;;;;;12.27;8.32;;;7.80;78.60;;;;;;4979070;28;20027;-82
2022/03/09 09:27:57;;;;;;;12.85;7.90;;;7.80;78.60;;;;;;4996536;28;20023;-82
2022/03/09 09:30:24;;;;;;;12.10;7.72;;;7.80;78.60;;;;;;4979173;28;20397;-82
2022/03/09 09:32:49;;;;;;;15.02;7.68;;;7.80;78.70;;;;;;4996390;28;20542;-82
2022/03/09 09:35:17;;;;;;;15.68;8.82;;;7.90;78.90;;;;;;4978307;28;20062;-82
2022/03/09 09:37:43;;;;;;;12.35;8.43;;;7.80;78.70;;;;;;4978890;28;20034;-82
2022/03/09 09:40:10;;;;;;;12.88;8.38;;;7.90;78.90;;;;;;4978669;28;20117;-82
2022/03/09 09:42:37;;;;;;;16.05;8.20;;;7.90;79.10;;;;;;4978818;28;20026;-81
2022/03/09 09:45:04;;;;;;;13.52;8.10;;;8.00;78.90;;;;;;4996209;28;20022;-82
2022/03/09 09:47:31;;;;;;;14.75;8.18;;;8.10;78.80;;;;;;4978584;28;20030;-82
2022/03/09 09:49:58;;;;;;;16.92;9.55;;;8.10;78.70;;;;;;4978625;28;20117;-82
2022/03/09 09:52:29;;;;;;;11.40;7.68;;;8.10;78.70;;;;;;4996022;28;20394;-82
2022/03/09 09:54:56;;;;;;;12.38;8.02;;;8.10;78.60;;;;;;4978545;28;20034;-82
2022/03/09 09:57:23;;;;;;;14.23;7.50;;;8.20;78.60;;;;;;4978509;28;20397;-82
2022/03/09 09:59:50;;;;;;;14.85;7.53;;;8.20;78.60;;;;;;4978360;28;20029;-82
2022/03/09 10:02:16;;;;;;;12.02;8.20;;;8.30;78.70;;;;;;4995856;28;20022;-82
2022/03/09 10:04:42;;;;;;;12.38;7.93;;;8.30;78.60;;;;;;4962666;28;20057;-81
2022/03/09 10:07:08;;;;;;;12.70;8.50;;;8.30;78.50;;;;;;4978396;28;20022;-81
2022/03/09 10:09:39;;;;;;;16.38;8.55;;;8.40;78.60;;;;;;4978438;28;20030;-81
2022/03/09 10:12:06;;;;;;;12.40;7.63;;;8.40;78.50;;;;;;4978252;28;20041;-81
2022/03/09 10:14:54;;;;;;;15.43;8.68;;;8.40;78.50;;;;;;4978182;28;20549;-81
2022/03/09 10:17:25;;;;;;;11.95;7.53;;;8.50;78.50;;;;;;4978533;28;20033;-81
2022/03/09 10:19:54;;;;;;;12.13;7.95;;;8.50;78.50;;;;;;4977855;28;20054;-82
2022/03/09 10:22:28;;;;;;;11.52;7.72;;;8.50;78.50;;;;;;4978179;28;20023;-81
2022/03/09 10:24:56;;;;;;;13.40;8.27;;;8.60;78.40;;;;;;4978107;28;20026;-81
2022/03/09 10:27:44;;;;;;;12.75;8.18;;;8.60;78.30;;;;;;4977885;28;20019;-81
2022/03/09 10:30:18;;;;;;;10.70;7.93;;;8.60;78.30;;;;;;4995508;28;20053;-82
2022/03/09 10:32:47;;;;;;;12.48;7.55;;;8.60;78.20;;;;;;4977987;28;20023;-81
2022/03/09 10:35:18;;;;;;;13.93;8.07;;;8.60;78.30;;;;;;4977860;28;20027;-81
2022/03/09 10:37:47;;;;;;;23.20;11.10;;;8.70;78.20;;;;;;4977960;28;20030;-82
2022/03/09 10:40:18;;;;;;;20.73;11.30;;;9.10;76.30;;;;;;4995420;28;20113;-82
2022/03/09 10:42:45;;;;;;;19.05;10.65;;;9.20;76.50;;;;;;4995091;28;20026;-82
2022/03/09 10:45:11;;;;;;;19.52;10.43;;;9.20;76.50;;;;;;4976785;28;20108;-82
2022/03/09 10:47:40;;;;;;;15.27;10.15;;;9.20;76.50;;;;;;4978448;28;20557;-82
2022/03/09 10:50:11;;;;;;;14.98;9.40;;;9.20;76.50;;;;;;4995408;28;20027;-83
2022/03/09 10:52:57;;;;;;;16.60;10.40;;;9.20;76.60;;;;;;4994723;28;20113;-82
2022/03/09 10:55:36;;;;;;;13.63;9.52;;;9.20;76.60;;;;;;4977556;28;20568;-82
2022/03/09 10:58:19;;;;;;;20.70;9.35;;;9.10;76.70;;;;;;4977740;28;20119;-81
2022/03/09 11:00:52;;;;;;;15.98;9.50;;;9.20;76.70;;;;;;4977317;28;20486;-81
2022/03/09 11:03:21;;;;;;;15.48;8.73;;;9.20;76.60;;;;;;4977525;28;20018;-81
2022/03/09 11:05:50;;;;;;;17.75;9.25;;;9.20;76.70;;;;;;4977017;28;20031;-81
2022/03/09 11:08:17;;;;;;;15.43;9.32;;;9.20;76.70;;;;;;4977317;28;20108;-81
2022/03/09 11:10:47;;;;;;;14.52;8.85;;;9.20;76.80;;;;;;4977287;28;20045;-82
2022/03/09 11:13:14;;;;;;;16.02;8.80;;;9.20;76.80;;;;;;4977013;28;20084;-82
2022/03/09 11:15:47;;;;;;;15.38;9.15;;;9.30;76.70;;;;;;4994842;28;20030;-81
2022/03/09 11:18:21;;;;;;;13.38;9.05;;;9.30;76.60;;;;;;4976632;28;20038;-81
2022/03/09 11:20:49;;;;;;;12.50;9.07;;;9.30;76.60;;;;;;4976955;28;20084;-81
2022/03/09 11:23:15;;;;;;;12.98;8.82;;;9.40;76.60;;;;;;4994522;28;20359;-81
2022/03/09 11:25:56;;;;;;;17.40;9.30;;;9.40;76.50;;;;;;4976713;28;20111;-82
2022/03/09 11:28:37;;;;;;;17.13;9.65;;;9.40;76.20;;;;;;4976722;28;20026;-81
2022/03/09 11:31:09;;;;;;;13.45;8.85;;;9.40;76.20;;;;;;4977015;28;20022;-82
2022/03/09 11:33:39;;;;;;;17.77;9.38;;;9.50;76.80;;;;;;4994168;28;20030;-82
2022/03/09 11:36:29;;;;;;;16.70;9.07;;;9.50;76.80;;;;;;4976773;28;20037;-81
2022/03/09 11:39:23;;;;;;;12.38;8.65;;;9.50;76.70;;;;;;4993996;28;20535;-81
2022/03/09 11:42:09;;;;;;;17.98;9.45;;;9.50;76.60;;;;;;4974090;28;20418;-82
2022/03/09 11:44:35;;;;;;;14.95;8.90;;;9.50;76.70;;;;;;4976381;28;20050;-82
2022/03/09 11:47:04;;;;;;;11.77;8.25;;;9.50;76.80;;;;;;4976502;28;20504;-82
2022/03/09 11:49:50;;;;;;;14.23;8.73;;;9.50;76.60;;;;;;4976599;28;20022;-82
2022/03/09 11:52:18;;;;;;;13.05;8.80;;;9.50;76.40;;;;;;4994118;28;20033;-81
2022/03/09 11:54:55;;;;;;;12.68;8.60;;;9.50;76.40;;;;;;4976773;28;20037;-82
2022/03/09 11:57:42;;;;;;;17.25;8.77;;;9.60;76.50;;;;;;4976633;28;20030;-81
2022/03/09 12:00:13;;;;;;;17.80;8.48;;;9.60;76.50;;;;;;4945084;28;20398;-81
2022/03/09 12:02:44;;;;;;;16.55;8.68;;;9.60;76.10;;;;;;4977238;28;20022;-81
2022/03/09 12:05:34;;;;;;;19.13;8.75;;;9.60;76.00;;;;;;4994222;28;20058;-81
2022/03/09 12:08:09;;;;;;;14.07;8.50;;;9.60;75.90;;;;;;4963668;28;20030;-81
2022/03/09 12:10:47;;;;;;;14.02;8.75;;;9.70;75.90;;;;;;4993984;28;20485;-82
2022/03/09 12:13:25;;;;;;;13.45;8.68;;;9.70;76.00;;;;;;4976490;28;20019;-81
2022/03/09 12:16:01;;;;;;;11.48;8.40;;;9.70;75.90;;;;;;4976754;28;20073;-82
2022/03/09 12:18:48;;;;;;;14.80;8.60;;;9.70;75.80;;;;;;4976190;28;20042;-82
2022/03/09 12:21:40;;;;;;;13.82;8.32;;;9.70;75.70;;;;;;4976249;28;20118;-81
2022/03/09 12:24:05;;;;;;;14.88;7.78;;;9.70;75.50;;;;;;4960875;28;20073;-81
2022/03/09 12:26:57;;;;;;;14.13;7.95;;;9.80;75.20;;;;;;4976345;28;20035;-81
2022/03/09 12:29:30;;;;;;;15.48;7.95;;;9.90;75.00;;;;;;4972718;28;20045;-81
2022/03/09 12:31:59;;;;;;;13.02;8.02;;;9.80;74.80;;;;;;4976434;28;20030;-81
2022/03/09 12:34:26;;;;;;;13.88;9.43;;;9.90;74.60;;;;;;4976310;28;20137;-82
2022/03/09 12:36:52;;;;;;;14.52;8.48;;;9.90;74.20;;;;;;4976235;28;20065;-81
2022/03/09 12:39:18;;;;;;;14.43;7.97;;;9.90;74.50;;;;;;4976414;28;20062;-82
2022/03/09 12:41:50;;;;;;;13.88;8.55;;;9.90;74.30;;;;;;4976714;28;20023;-82
2022/03/09 12:44:17;;;;;;;13.55;8.63;;;10.00;74.50;;;;;;4976916;28;20062;-82
2022/03/09 12:46:49;;;;;;;14.70;8.30;;;10.00;74.30;;;;;;4976101;28;20029;-82
2022/03/09 12:49:33;;;;;;;14.88;8.00;;;10.00;74.10;;;;;;4993776;28;20077;-82
2022/03/09 12:52:06;;;;;;;15.20;8.32;;;10.10;74.10;;;;;;4993638;28;20359;-82